TimeMST,TemperatureF,Dew PointF,Humidity,Sea Level PressureIn,VisibilityMPH,Wind Direction,Wind SpeedMPH,Gust SpeedMPH,PrecipitationIn,Events,Conditions,WindDirDegrees,DateUTC
12:53 AM,63.0,43.0,48,29.83,10.0,Calm,Calm,-,N/A,,Clear,0,2013-03-16 07:53:00
1:53 AM,64.9,41.0,42,29.82,10.0,NE,3.5,-,N/A,,Clear,40,2013-03-16 08:53:00
2:53 AM,61.0,44.1,54,29.81,10.0,Calm,Calm,-,N/A,,Clear,0,2013-03-16 09:53:00
3:53 AM,60.1,45.0,57,29.79,10.0,Calm,Calm,-,N/A,,Clear,0,2013-03-16 10:53:00
4:53 AM,60.1,44.1,55,29.79,10.0,Calm,Calm,-,N/A,,Clear,0,2013-03-16 11:53:00
5:53 AM,59.0,44.1,58,29.79,10.0,Calm,Calm,-,N/A,,Clear,0,2013-03-16 12:53:00
6:53 AM,60.1,43.0,53,29.80,10.0,Calm,Calm,-,N/A,,Clear,0,2013-03-16 13:53:00
7:53 AM,62.1,41.0,46,29.81,10.0,Calm,Calm,-,N/A,,Clear,0,2013-03-16 14:53:00
8:53 AM,66.0,43.0,43,29.83,10.0,Calm,Calm,-,N/A,,Clear,0,2013-03-16 15:53:00
9:53 AM,72.0,39.9,31,29.82,10.0,South,4.6,-,N/A,,Clear,170,2013-03-16 16:53:00
10:53 AM,75.9,34.0,22,29.82,10.0,Variable,3.5,-,N/A,,Clear,0,2013-03-16 17:53:00
11:53 AM,78.1,34.0,20,29.81,10.0,ESE,3.5,-,N/A,,Clear,110,2013-03-16 18:53:00
12:53 PM,81.0,33.1,18,29.77,10.0,SSW,6.9,-,N/A,,Clear,210,2013-03-16 19:53:00
1:53 PM,82.9,30.9,15,29.74,10.0,SW,5.8,-,N/A,,Clear,230,2013-03-16 20:53:00
2:53 PM,84.0,32.0,15,29.72,10.0,Variable,3.5,-,N/A,,Clear,0,2013-03-16 21:53:00
3:53 PM,84.0,30.0,14,29.69,10.0,SW,8.1,-,N/A,,Clear,220,2013-03-16 22:53:00
4:53 PM,84.0,28.0,13,29.69,10.0,WSW,8.1,-,N/A,,Clear,250,2013-03-16 23:53:00
5:53 PM,82.9,24.1,12,29.70,10.0,West,6.9,-,N/A,,Clear,260,2013-03-17 00:53:00
6:53 PM,81.0,25.0,13,29.70,10.0,Calm,Calm,-,N/A,,Clear,0,2013-03-17 01:53:00
7:53 PM,77.0,30.0,18,29.71,10.0,Calm,Calm,-,N/A,,Clear,0,2013-03-17 02:53:00
8:53 PM,73.9,32.0,21,29.73,10.0,Calm,Calm,-,N/A,,Clear,0,2013-03-17 03:53:00
9:53 PM,71.1,35.1,27,29.74,10.0,NE,3.5,-,N/A,,Clear,40,2013-03-17 04:53:00
10:53 PM,70.0,32.0,25,29.74,10.0,Calm,Calm,-,N/A,,Clear,0,2013-03-17 05:53:00
11:53 PM,66.0,37.9,36,29.73,10.0,Calm,Calm,-,N/A,,Clear,0,2013-03-17 06:53:00